createdAt,value
2022-10-29T00:16:08.132Z,30.03
2022-10-29T00:46:25.845Z,29.90
2022-10-29T01:16:50.524Z,23.53
2022-10-29T01:47:02.549Z,24.93
2022-10-29T02:17:15.598Z,15.87
2022-10-29T02:47:24.339Z,14.63
2022-10-29T03:17:40.153Z,13.30
2022-10-29T03:47:48.526Z,14.43
2022-10-29T04:17:58.826Z,15.40
2022-10-29T04:48:09.663Z,12.40
2022-10-29T05:18:26.186Z,9.13
2022-10-29T05:48:34.743Z,9.40
2022-10-29T06:18:43.449Z,14.80
2022-10-29T06:48:52.208Z,16.80
2022-10-29T07:19:10.127Z,10.07
2022-10-29T07:49:32.541Z,12.07
2022-10-29T08:19:41.529Z,7.90
2022-10-29T08:49:59.522Z,7.80
2022-10-29T09:20:25.346Z,7.65
2022-10-29T09:50:41.738Z,8.38
2022-10-29T10:21:09.774Z,13.50
2022-10-29T10:51:32.740Z,11.60
2022-10-29T11:21:48.547Z,11.13
2022-10-29T11:52:08.890Z,17.00
2022-10-29T12:22:34.069Z,12.20
2022-10-29T12:52:52.538Z,14.07
2022-10-29T13:23:06.712Z,12.57
2022-10-29T13:53:24.061Z,27.83
2022-10-29T14:23:41.078Z,13.03
2022-10-29T14:54:02.043Z,25.77
2022-10-29T15:24:17.775Z,25.47
2022-10-29T15:54:36.434Z,36.97
2022-10-29T16:24:47.225Z,39.37
2022-10-29T16:54:58.162Z,48.87
2022-10-29T17:25:09.686Z,41.77
2022-10-29T17:55:18.482Z,37.43
2022-10-29T18:25:32.611Z,37.67
2022-10-29T18:55:51.810Z,41.13
2022-10-29T19:26:05.810Z,35.30
2022-10-29T19:56:17.655Z,42.43
2022-10-29T20:26:35.943Z,33.47
2022-10-29T20:56:44.363Z,27.20
2022-10-29T21:27:00.859Z,20.43
2022-10-29T21:57:09.436Z,21.93
2022-10-29T22:27:26.317Z,18.90
2022-10-29T22:57:34.609Z,26.10
2022-10-29T23:27:43.468Z,30.37
2022-10-29T23:57:54.430Z,16.50
